Terminal Aerodrome Forecast
Issued by NWS San Angelo, TX

Home | Current Version | Previous Version | Text Only | Print | Product List | Glossary On
Versions: 1 2 3 4 5 6 7 8 9 10 11 12 13 14
185
FTUS44 KSJT 242101 AAB
TAFABI
TAF AMD
KABI 242101Z 2421/2518 28013G20KT P6SM SCT250
     FM250000 28010KT P6SM FEW250
     FM251500 31010KT P6SM SCT250=

USA.gov is the U.S. government's official web portal to all federal, state and local government web resources and services.